Time;durP1;ratioP1;P1;durP2;ratioP2;P2;SDS_P1;SDS_P2;PMS_P1;PMS_P2;Temp;Humidity;BMP_temperature;BMP_pressure;BME280_temperature;BME280_humidity;BME280_pressure;Samples;Min_cycle;Max_cycle;Signal;HPM_P1;HPM_P2
2023/10/09 00:01:17;;;;;;;;;33.67;29.33;;;;;21.14;58.44;101887.38;5017947;28;45450;-74
2023/10/09 00:03:44;;;;;;;;;35.67;31.00;;;;;20.71;58.87;101822.66;5016245;28;46109;-75
2023/10/09 00:06:13;;;;;;;;;28.00;26.00;;;;;20.40;58.94;101784.34;5016086;28;45501;-73
2023/10/09 00:08:44;;;;;;;;;30.33;28.00;;;;;20.31;58.70;101782.75;5016066;28;45554;-75
2023/10/09 00:11:16;;;;;;;;;31.67;28.33;;;;;20.63;59.16;101829.97;5024454;28;45486;-74
2023/10/09 00:13:51;;;;;;;;;39.33;28.67;;;;;20.92;59.36;101889.66;5036778;28;45440;-74
2023/10/09 00:16:23;;;;;;;;;34.00;28.67;;;;;20.69;59.57;101867.13;5036283;28;45434;-73
2023/10/09 00:18:50;;;;;;;;;39.00;30.67;;;;;19.80;59.73;101713.81;5036039;28;45536;-73
2023/10/09 00:21:21;;;;;;;;;40.67;34.00;;;;;20.52;59.54;101827.53;5035910;28;45560;-75
2023/10/09 00:23:55;;;;;;;;;34.67;30.00;;;;;20.83;59.81;101889.88;5051189;28;45474;-73
2023/10/09 00:26:21;;;;;;;;;36.33;32.67;;;;;20.69;59.99;101872.44;5035957;28;45246;-73
2023/10/09 00:28:47;;;;;;;;;36.67;31.33;;;;;20.57;59.93;101853.19;5052863;28;45254;-74
2023/10/09 00:31:26;;;;;;;;;46.00;34.00;;;;;20.36;59.87;101834.09;5037158;28;45459;-74
2023/10/09 00:33:52;;;;;;;;;41.00;33.33;;;;;20.65;60.51;101894.69;5034196;28;46001;-73
2023/10/09 00:36:27;;;;;;;;;44.00;35.67;;;;;20.63;60.79;101893.84;5032367;28;45695;-74
2023/10/09 00:38:52;;;;;;;;;37.33;32.67;;;;;20.67;60.33;101890.22;5034666;28;45524;-74
2023/10/09 00:41:24;;;;;;;;;47.67;38.00;;;;;19.99;60.90;101794.06;5024080;28;45571;-72
2023/10/09 00:43:51;;;;;;;;;38.00;33.67;;;;;20.44;61.43;101887.13;5028710;28;45866;-72
2023/10/09 00:48:47;;;;;;;;;39.33;34.67;;;;;20.24;61.14;101850.28;5020813;28;45346;-74
2023/10/09 00:51:24;;;;;;;;;44.00;36.00;;;;;19.91;61.34;101796.91;5033373;28;45320;-74
2023/10/09 00:53:57;;;;;;;;;44.67;36.00;;;;;19.90;61.77;101801.31;5019798;28;46511;-74
2023/10/09 00:59:20;;;;;;;;;42.67;35.00;;;;;20.31;61.90;101862.56;5018652;28;45223;-73
2023/10/09 01:02:04;;;;;;;;;39.00;36.67;;;;;20.15;61.97;101848.72;5017610;28;45379;-74
2023/10/09 01:04:36;;;;;;;;;41.33;35.33;;;;;20.18;62.32;101863.72;5032105;28;45508;-73
2023/10/09 01:07:15;;;;;;;;;50.00;36.67;;;;;20.00;62.81;101867.59;5038734;28;45333;-74
2023/10/09 01:09:45;;;;;;;;;40.67;36.00;;;;;19.63;62.62;101794.72;5025656;28;46284;-73
2023/10/09 01:12:16;;;;;;;;;44.67;36.67;;;;;19.71;62.47;101789.28;5019709;28;45379;-73
2023/10/09 01:14:43;;;;;;;;;36.33;30.00;;;;;19.86;62.93;101815.59;5018533;28;46220;-73
2023/10/09 01:17:11;;;;;;;;;42.00;34.67;;;;;19.89;62.68;101838.59;5036887;28;45331;-74
2023/10/09 01:19:37;;;;;;;;;40.00;34.00;;;;;19.66;62.25;101769.88;5038807;28;45358;-73
2023/10/09 01:22:12;;;;;;;;;38.00;31.67;;;;;19.80;62.65;101801.53;5038746;28;45457;-73
2023/10/09 01:24:38;;;;;;;;;41.00;33.33;;;;;19.04;62.25;101663.91;5039329;28;46427;-73
2023/10/09 01:27:12;;;;;;;;;37.67;32.00;;;;;19.85;62.40;101807.63;5038547;28;45509;-73
2023/10/09 01:29:39;;;;;;;;;36.00;31.00;;;;;19.80;62.51;101804.19;5037726;28;45529;-73
2023/10/09 01:32:04;;;;;;;;;38.33;31.67;;;;;19.95;62.72;101840.25;5038682;28;45460;-73
2023/10/09 01:34:50;;;;;;;;;42.33;34.67;;;;;19.98;62.67;101825.13;5053747;28;45598;-73
2023/10/09 01:37:28;;;;;;;;;44.33;33.67;;;;;19.80;63.48;101834.31;5036430;28;45509;-74
2023/10/09 01:40:25;;;;;;;;;44.00;34.33;;;;;19.72;63.40;101830.94;5038208;28;45378;-74
2023/10/09 01:42:47;;;;;;;;;38.33;34.67;;;;;19.69;63.88;101818.59;5018941;28;45300;-73
2023/10/09 01:45:26;;;;;;;;;46.00;36.67;;;;;19.22;63.98;101759.19;5019273;28;46539;-73
2023/10/09 01:47:55;;;;;;;;;48.00;34.33;;;;;19.15;64.20;101756.63;5017910;28;45227;-73
2023/10/09 01:50:30;;;;;;;;;38.00;33.33;;;;;19.40;64.59;101812.88;5018196;28;45668;-73
2023/10/09 01:52:56;;;;;;;;;39.00;32.00;;;;;18.63;64.91;101687.56;5018025;28;45323;-74
2023/10/09 01:55:37;;;;;;;;;36.00;29.33;;;;;19.07;64.59;101754.97;5027103;28;46724;-73
2023/10/09 02:01:05;;;;;;;;;41.33;30.33;;;;;19.26;64.96;101806.00;5032835;28;45273;-73
2023/10/09 02:03:30;;;;;;;;;33.00;31.67;;;;;18.90;65.25;101751.75;5037903;28;45438;-73
2023/10/09 02:05:59;;;;;;;;;34.00;33.00;;;;;19.21;65.70;101814.97;5037607;28;46209;-74
2023/10/09 02:08:35;;;;;;;;;36.00;32.33;;;;;19.23;65.42;101807.84;5053817;28;45523;-74
2023/10/09 02:11:02;;;;;;;;;42.33;32.00;;;;;18.66;66.11;101710.53;5038501;28;45520;-76
2023/10/09 02:13:34;;;;;;;;;31.00;27.33;;;;;18.52;65.90;101724.00;5038578;28;45485;-75
2023/10/09 02:16:28;;;;;;;;;34.33;31.33;;;;;18.64;66.36;101742.38;5052040;28;45460;-74
2023/10/09 02:18:58;;;;;;;;;36.33;31.33;;;;;18.48;66.35;101727.59;5029823;28;45454;-74
2023/10/09 02:21:39;;;;;;;;;39.67;32.00;;;;;18.65;66.50;101777.78;5043110;28;45429;-74
2023/10/09 02:24:07;;;;;;;;;32.00;29.33;;;;;18.67;66.70;101791.88;5040437;28;45501;-73
2023/10/09 02:29:15;;;;;;;;;30.33;27.67;;;;;18.27;67.11;101751.78;5038257;28;45430;-75
2023/10/09 02:31:46;;;;;;;;;34.00;28.33;;;;;18.47;67.38;101778.91;5038944;28;45465;-74
2023/10/09 02:34:15;;;;;;;;;29.67;24.67;;;;;18.59;67.01;101807.03;5036911;28;45489;-77
2023/10/09 02:36:48;;;;;;;;;31.33;23.67;;;;;18.38;66.45;101757.81;5038667;28;46004;-74
2023/10/09 02:39:25;;;;;;;;;27.67;25.33;;;;;18.29;66.51;101727.00;5037694;28;45505;-74
2023/10/09 02:42:01;;;;;;;;;28.00;24.67;;;;;18.33;66.32;101749.91;5027140;28;45512;-74
2023/10/09 02:44:39;;;;;;;;;32.33;25.33;;;;;18.07;66.41;101713.16;5023740;28;45587;-74
2023/10/09 02:47:11;;;;;;;;;27.67;25.33;;;;;17.97;66.66;101698.28;5042157;28;45762;-75
2023/10/09 02:49:39;;;;;;;;;24.67;24.33;;;;;18.51;66.60;101798.28;5039880;28;45501;-74
2023/10/09 02:52:07;;;;;;;;;24.33;22.00;;;;;18.53;66.79;101788.53;5042730;28;45436;-74
2023/10/09 02:54:41;;;;;;;;;26.00;21.33;;;;;18.50;66.65;101784.16;5047006;28;45482;-74
2023/10/09 02:57:07;;;;;;;;;29.33;23.00;;;;;18.26;66.73;101750.91;5044648;28;45346;-74
2023/10/09 02:59:38;;;;;;;;;26.00;23.33;;;;;18.42;67.00;101786.06;5042433;28;45460;-73
2023/10/09 03:02:04;;;;;;;;;26.67;21.67;;;;;18.44;67.02;101781.63;5037682;28;45547;-75
2023/10/09 03:04:30;;;;;;;;;29.67;24.00;;;;;18.31;66.55;101757.03;5037248;28;45674;-74
2023/10/09 03:06:57;;;;;;;;;20.67;20.67;;;;;18.51;66.58;101787.69;5037409;28;45572;-74
2023/10/09 03:09:27;;;;;;;;;20.00;20.00;;;;;18.05;66.51;101714.09;5036899;28;45437;-74
2023/10/09 03:12:03;;;;;;;;;24.33;21.33;;;;;17.86;66.32;101663.09;5036839;28;45350;-74
2023/10/09 03:14:31;;;;;;;;;26.33;22.00;;;;;18.10;65.99;101713.09;5036823;28;45500;-73
2023/10/09 03:16:57;;;;;;;;;24.67;20.00;;;;;18.22;65.64;101712.97;5036533;28;45542;-73
2023/10/09 03:19:26;;;;;;;;;24.00;23.33;;;;;18.09;66.00;101689.28;5034936;28;45438;-74
2023/10/09 03:21:52;;;;;;;;;28.33;23.00;;;;;18.06;66.10;101687.56;5036360;28;45335;-74
2023/10/09 03:24:22;;;;;;;;;25.67;20.00;;;;;18.07;66.01;101707.00;5051917;28;45662;-72
2023/10/09 03:26:49;;;;;;;;;21.67;19.00;;;;;18.10;65.65;101689.25;5036489;28;45435;-73
2023/10/09 03:29:14;;;;;;;;;23.67;19.67;;;;;18.80;65.97;101798.78;5036929;28;45471;-74
2023/10/09 03:31:42;;;;;;;;;31.33;24.33;;;;;18.13;65.68;101683.94;5038121;28;45561;-76
2023/10/09 03:34:10;;;;;;;;;23.00;21.33;;;;;18.64;66.35;101779.53;5037613;28;45522;-76
2023/10/09 03:36:39;;;;;;;;;26.00;22.67;;;;;18.74;66.66;101801.50;5038400;28;45460;-74
2023/10/09 03:39:34;;;;;;;;;31.33;27.00;;;;;18.73;66.51;101799.75;5039369;28;45385;-73
2023/10/09 03:41:58;;;;;;;;;27.00;24.00;;;;;18.34;65.86;101713.66;5036391;28;45391;-73
2023/10/09 03:44:27;;;;;;;;;25.33;23.33;;;;;18.88;65.85;101803.97;5019033;28;45268;-75
2023/10/09 03:46:53;;;;;;;;;27.67;19.67;;;;;18.23;65.49;101685.53;5016571;28;45442;-72
2023/10/09 03:49:23;;;;;;;;;26.67;23.67;;;;;18.25;65.26;101676.66;5032596;28;45675;-75
2023/10/09 03:51:50;;;;;;;;;26.67;22.00;;;;;18.95;65.28;101783.53;5051477;28;45574;-73
2023/10/09 03:54:17;;;;;;;;;27.00;22.33;;;;;18.53;64.91;101707.22;5036049;28;45856;-72
2023/10/09 03:56:43;;;;;;;;;35.33;28.00;;;;;19.04;65.08;101810.81;5035951;28;45530;-75
2023/10/09 03:59:10;;;;;;;;;32.33;28.00;;;;;18.13;65.33;101648.59;5036148;28;45354;-74
2023/10/09 04:01:39;;;;;;;;;25.67;23.33;;;;;18.63;65.52;101734.47;5036479;28;45342;-73
2023/10/09 04:04:07;;;;;;;;;26.00;22.67;;;;;18.97;65.70;101818.91;5037670;28;45410;-74
2023/10/09 04:06:33;;;;;;;;;26.67;26.67;;;;;18.10;65.98;101662.75;5035975;28;46340;-73
2023/10/09 04:11:47;;;;;;;;;30.67;27.00;;;;;18.92;66.21;101815.44;5036244;28;45166;-74
2023/10/09 04:14:24;;;;;;;;;34.33;27.33;;;;;18.12;66.43;101698.06;5039626;28;45466;-74
2023/10/09 04:17:04;;;;;;;;;26.00;24.00;;;;;18.70;66.45;101780.34;5039336;28;46304;-73
2023/10/09 04:19:38;;;;;;;;;38.00;31.33;;;;;18.59;66.65;101775.19;5040248;28;45415;-73
2023/10/09 04:22:07;;;;;;;;;29.50;25.50;;;;;18.84;66.61;101819.09;5041139;28;45438;-74
2023/10/09 04:24:41;;;;;;;;;28.33;25.67;;;;;18.32;66.59;101719.00;5040805;28;45434;-73
2023/10/09 04:27:08;;;;;;;;;32.67;25.00;;;;;18.87;66.46;101812.00;5040988;28;46326;-74
2023/10/09 04:29:43;;;;;;;;;26.67;26.00;;;;;18.94;66.45;101805.69;5040857;28;45520;-74
2023/10/09 04:32:15;;;;;;;;;20.00;19.67;;;;;18.47;66.14;101717.91;5040409;28;45497;-75
2023/10/09 04:34:56;;;;;;;;;27.00;25.67;;;;;19.04;66.06;101813.47;5039532;28;45542;-74
2023/10/09 04:37:37;;;;;;;;;29.00;26.00;;;;;19.09;65.92;101808.06;5039410;28;45482;-74
2023/10/09 04:40:12;;;;;;;;;26.67;22.33;;;;;18.63;65.52;101729.16;5038979;28;45427;-72
2023/10/09 04:42:38;;;;;;;;;27.00;22.67;;;;;18.52;66.17;101744.34;5035744;28;45620;-73
2023/10/09 04:47:36;;;;;;;;;32.00;22.67;;;;;18.79;65.84;101810.31;5020983;28;45984;-73
2023/10/09 04:55:18;;;;;;;;;30.33;25.67;;;;;18.70;66.03;101798.91;5039070;28;45576;-74
2023/10/09 05:02:57;;;;;;;;;26.00;21.33;;;;;18.11;66.18;101719.31;5039220;28;45365;-72
2023/10/09 05:08:19;;;;;;;;;28.00;23.67;;;;;18.49;66.44;101803.66;5038300;28;46162;-73
2023/10/09 05:13:57;;;;;;;;;30.00;24.00;;;;;18.18;66.86;101766.94;5040671;28;45528;-73
2023/10/09 05:16:19;;;;;;;;;30.33;24.33;;;;;18.33;67.17;101825.97;5039445;28;45569;-75
2023/10/09 05:19:05;;;;;;;;;27.67;23.33;;;;;17.75;66.93;101722.38;5038797;28;45395;-73
2023/10/09 05:26:52;;;;;;;;;21.33;19.00;;;;;18.21;67.08;101798.69;5039153;28;45472;-75
2023/10/09 05:37:32;;;;;;;;;25.33;23.33;;;;;18.24;66.77;101795.13;5053721;28;45424;-74
2023/10/09 05:50:34;;;;;;;;;24.67;21.67;;;;;18.52;66.38;101838.06;5040117;28;45413;-75
2023/10/09 06:03:49;;;;;;;;;26.00;22.00;;;;;18.15;66.78;101804.09;5039332;28;45425;-74
2023/10/09 06:06:32;;;;;;;;;25.67;23.67;;;;;18.14;66.56;101791.72;5053281;28;45512;-73
2023/10/09 06:11:39;;;;;;;;;26.00;21.67;;;;;18.00;65.71;101746.81;5039147;28;45305;-74
2023/10/09 06:16:59;;;;;;;;;25.33;21.67;;;;;18.45;65.90;101791.31;5038561;28;45568;-74
2023/10/09 06:19:26;;;;;;;;;24.00;20.00;;;;;18.61;66.05;101831.78;5039072;28;45477;-74
2023/10/09 06:24:54;;;;;;;;;24.00;19.33;;;;;18.31;65.71;101796.81;5038997;28;45521;-74
2023/10/09 06:28:04;;;;;;;;;24.00;18.00;;;;;18.39;65.73;101799.38;5039950;28;45520;-76
2023/10/09 06:32:57;;;;;;;;;24.67;22.00;;;;;18.25;66.02;101772.13;5038518;28;45457;-74
2023/10/09 06:35:33;;;;;;;;;30.00;24.33;;;;;18.39;65.91;101784.34;5037736;28;45448;-74
2023/10/09 06:46:37;;;;;;;;;26.67;21.33;;;;;18.22;65.52;101789.88;5033488;28;45554;-76
2023/10/09 06:48:46;;;;;;;;;31.67;24.00;;;;;18.55;65.57;101826.53;5037476;28;45410;-75
2023/10/09 06:51:34;;;;;;;;;29.00;22.67;;;;;18.18;65.12;101761.63;5037653;28;45338;-76
2023/10/09 06:54:04;;;;;;;;;30.00;29.33;;;;;18.21;64.90;101753.63;5038243;28;45591;-75
2023/10/09 06:58:57;;;;;;;;;29.33;26.33;;;;;18.81;65.00;101860.72;5037687;28;45534;-75
2023/10/09 07:01:42;;;;;;;;;33.67;28.67;;;;;18.24;65.16;101760.66;5038847;28;45435;-72
2023/10/09 07:07:24;;;;;;;;;37.33;29.67;;;;;18.76;65.38;101852.81;5035270;28;45580;-71
2023/10/09 07:12:43;;;;;;;;;22.67;21.67;;;;;18.69;64.88;101834.31;5030384;28;45398;-74
2023/10/09 07:20:36;;;;;;;;;32.67;29.00;;;;;17.94;64.59;101709.81;5023942;28;45443;-75
2023/10/09 07:23:14;;;;;;;;;28.67;26.67;;;;;18.54;64.42;101799.16;5032399;28;45516;-75
2023/10/09 07:25:54;;;;;;;;;30.00;27.67;;;;;18.84;64.13;101844.75;5032503;28;46069;-74
2023/10/09 07:28:36;;;;;;;;;33.33;28.67;;;;;18.43;64.07;101801.94;5020666;28;45490;-75
2023/10/09 07:31:08;;;;;;;;;37.33;29.00;;;;;19.05;64.05;101883.38;5041716;28;45476;-75
2023/10/09 07:33:52;;;;;;;;;34.00;25.33;;;;;18.93;63.65;101844.59;5017207;28;45362;-75
2023/10/09 07:36:29;;;;;;;;;38.00;32.00;;;;;18.47;63.50;101756.81;5016629;28;46650;-75
2023/10/09 07:38:55;;;;;;;;;36.67;30.00;;;;;19.27;63.42;101870.66;5016195;28;45454;-71
2023/10/09 07:43:47;;;;;;;;;65.00;49.75;;;;;19.37;63.15;101888.19;5037547;28;45335;-77
2023/10/09 07:46:33;;;;;;;;;37.67;34.67;;;;;19.35;62.77;101863.41;5022035;28;45451;-72
2023/10/09 07:49:08;;;;;;;;;51.00;38.25;;;;;19.28;62.83;101856.47;5037516;28;45425;-74
2023/10/09 07:51:36;;;;;;;;;39.67;32.00;;;;;19.52;62.65;101887.03;5036500;28;45379;-71
2023/10/09 07:54:09;;;;;;;;;32.33;31.33;;;;;19.34;62.58;101845.75;5034824;28;45345;-74
2023/10/09 07:56:43;;;;;;;;;37.33;33.00;;;;;19.55;62.20;101878.13;5032645;28;45529;-72
2023/10/09 07:59:12;;;;;;;;;36.00;32.67;;;;;19.45;62.28;101858.81;5037748;28;45260;-73
2023/10/09 08:01:52;;;;;;;;;39.33;33.33;;;;;19.17;62.37;101802.63;5037534;28;45326;-73
2023/10/09 08:04:47;;;;;;;;;37.33;33.67;;;;;19.41;62.23;101846.50;5050343;28;45410;-72
2023/10/09 08:07:19;;;;;;;;;38.67;33.67;;;;;19.76;62.36;101877.78;5049855;28;45551;-72
2023/10/09 08:10:43;;;;;;;;;31.33;31.33;;;;;19.87;61.93;101891.78;5034619;28;45449;-72
2023/10/09 08:18:03;;;;;;;;;37.67;34.67;;;;;20.17;61.58;101899.19;5040940;28;46020;-74
2023/10/09 08:20:51;;;;;;;;;33.67;29.00;;;;;19.98;60.70;101827.78;5035723;28;45461;-74
2023/10/09 08:23:50;;;;;;;;;33.00;30.00;;;;;20.06;60.14;101806.34;5040969;28;45492;-73
2023/10/09 08:26:16;;;;;;;;;33.33;25.67;;;;;20.70;60.30;101899.94;5032441;28;44976;-71
2023/10/09 08:28:42;;;;;;;;;36.67;28.67;;;;;20.71;59.87;101869.72;5025203;28;47019;-73
2023/10/09 08:33:58;;;;;;;;;40.67;33.67;;;;;21.09;58.46;101886.59;5034268;28;45331;-73
2023/10/09 08:36:37;;;;;;;;;36.67;32.33;;;;;20.99;58.57;101869.97;5033288;28;45465;-72
2023/10/09 08:39:25;;;;;;;;;34.33;31.67;;;;;21.06;57.86;101879.56;5024950;28;45379;-73
2023/10/09 08:41:52;;;;;;;;;35.33;31.67;;;;;21.29;58.06;101894.16;5033955;28;45390;-72
2023/10/09 08:44:23;;;;;;;;;39.00;31.00;;;;;21.45;57.71;101899.97;5031944;28;45404;-71
2023/10/09 08:46:50;;;;;;;;;39.67;29.67;;;;;21.25;57.26;101856.03;5031799;28;45572;-71
2023/10/09 08:49:16;;;;;;;;;37.00;28.33;;;;;21.66;57.12;101909.22;5034720;28;45557;-74
2023/10/09 08:51:42;;;;;;;;;35.00;26.00;;;;;21.37;55.83;101833.53;5031499;28;45426;-73
2023/10/09 08:54:11;;;;;;;;;25.67;24.67;;;;;21.34;54.87;101804.31;5037650;28;45460;-73
2023/10/09 08:56:39;;;;;;;;;18.67;18.67;;;;;21.81;53.75;101856.38;5027969;28;45578;-75
2023/10/09 08:59:05;;;;;;;;;21.33;20.00;;;;;21.76;53.12;101823.66;5031504;28;46476;-73
2023/10/09 09:01:34;;;;;;;;;23.67;20.00;;;;;22.16;52.21;101888.31;5033504;28;45468;-73
2023/10/09 09:04:02;;;;;;;;;22.67;21.00;;;;;21.99;51.13;101838.13;5030101;28;45341;-73
2023/10/09 09:06:40;;;;;;;;;21.67;19.67;;;;;22.47;48.82;101914.19;5027200;28;45376;-73
2023/10/09 09:09:15;;;;;;;;;22.33;20.33;;;;;22.09;49.32;101836.06;5027298;28;46461;-71
2023/10/09 09:11:48;;;;;;;;;22.00;16.33;;;;;22.10;49.43;101822.69;5021796;28;45566;-73
2023/10/09 09:14:18;;;;;;;;;20.33;14.67;;;;;22.16;48.16;101802.94;5028157;28;46738;-73
2023/10/09 09:16:48;;;;;;;;;19.33;14.67;;;;;22.61;48.73;101850.56;5026317;28;46087;-74
2023/10/09 09:19:17;;;;;;;;;18.33;17.00;;;;;23.22;48.47;101918.13;5026795;28;45676;-76
2023/10/09 09:22:11;;;;;;;;;16.67;12.00;;;;;23.18;47.96;101895.13;5033281;28;45343;-72
2023/10/09 09:24:37;;;;;;;;;17.33;15.67;;;;;23.50;49.19;101918.09;5018369;28;45505;-72
2023/10/09 09:27:18;;;;;;;;;20.00;16.33;;;;;23.58;47.78;101887.56;5018976;28;45488;-72
2023/10/09 09:29:52;;;;;;;;;20.00;16.33;;;;;23.88;45.38;101910.59;5019543;28;45532;-71
2023/10/09 09:32:35;;;;;;;;;15.67;14.67;;;;;23.97;45.35;101911.22;5017847;28;45482;-71
2023/10/09 09:35:04;;;;;;;;;21.67;17.67;;;;;23.69;43.52;101856.84;5019861;28;45367;-72
2023/10/09 09:40:28;;;;;;;;;14.00;11.33;;;;;24.38;44.21;101912.38;5018424;28;45507;-71
2023/10/09 09:43:06;;;;;;;;;15.67;14.33;;;;;24.54;44.10;101896.66;5025078;28;45624;-72
2023/10/09 09:45:35;;;;;;;;;20.00;15.00;;;;;24.37;43.33;101842.81;5040166;28;45437;-71
2023/10/09 09:48:05;;;;;;;;;20.67;18.00;;;;;24.51;43.00;101838.72;5039172;28;45414;-72
2023/10/09 09:50:33;;;;;;;;;24.00;21.67;;;;;24.95;42.35;101900.38;5038462;28;45404;-75
2023/10/09 09:52:59;;;;;;;;;22.67;19.33;;;;;24.91;42.83;101855.88;5037771;28;45478;-71
2023/10/09 09:55:32;;;;;;;;;24.33;20.33;;;;;25.05;40.77;101812.44;5039619;28;45584;-71
2023/10/09 09:57:58;;;;;;;;;22.33;21.00;;;;;25.70;41.17;101861.56;5038299;28;45361;-72
2023/10/09 10:01:16;;;;;;;;;19.00;17.00;;;;;26.31;40.96;101879.44;5037418;28;45556;-73
2023/10/09 10:03:19;;;;;;;;;21.33;17.33;;;;;27.03;40.06;101891.31;5033201;28;45733;-73
2023/10/09 10:05:48;;;;;;;;;21.33;19.33;;;;;27.55;39.31;101882.47;5038154;28;45423;-72
2023/10/09 10:08:19;;;;;;;;;16.67;13.67;;;;;28.07;38.87;101871.69;5037866;28;45489;-74
2023/10/09 10:13:44;;;;;;;;;21.00;19.50;;;;;29.53;35.93;101885.06;5025082;28;45465;-75
2023/10/09 10:19:06;;;;;;;;;14.00;12.25;;;;;33.66;28.46;101881.25;5024487;28;45413;-73
2023/10/09 10:21:40;;;;;;;;;15.00;15.00;;;;;34.80;27.33;101796.81;5037852;28;45847;-75
2023/10/09 10:24:30;;;;;;;;;23.20;17.00;;;;;36.54;25.60;101871.66;5037853;28;45553;-74
2023/10/09 10:27:27;;;;;;;;;15.80;14.60;;;;;36.98;24.19;101872.22;5036548;28;45539;-75
2023/10/09 10:30:23;;;;;;;;;14.60;11.20;;;;;36.44;24.66;101851.69;5039110;28;45496;-74
2023/10/09 10:32:52;;;;;;;;;11.80;11.00;;;;;37.10;24.41;101864.78;5030734;28;46699;-76
2023/10/09 10:35:45;;;;;;;;;13.00;11.80;;;;;38.48;21.92;101869.81;5038606;28;45449;-73
2023/10/09 10:38:45;;;;;;;;;12.00;9.60;;;;;39.25;21.11;101868.44;5039069;28;45580;-75
2023/10/09 10:41:12;;;;;;;;;6.80;6.40;;;;;40.19;19.46;101878.69;5032542;28;45391;-74
2023/10/09 10:46:24;;;;;;;;;9.20;7.00;;;;;41.71;17.58;101861.16;5041550;28;45475;-73
2023/10/09 10:48:59;;;;;;;;;6.40;4.40;;;;;42.75;16.77;101871.09;5038807;28;45290;-74
2023/10/09 10:51:49;;;;;;;;;6.00;5.00;;;;;43.17;15.80;101871.69;5037656;28;45545;-74
2023/10/09 10:57:01;;;;;;;;;4.40;3.80;;;;;43.21;14.71;101795.84;5038642;28;45466;-73
2023/10/09 10:59:36;;;;;;;;;8.80;4.40;;;;;42.66;15.20;101854.78;5038752;28;45500;-74
2023/10/09 11:15:44;;;;;;;;;5.60;5.60;;;;;39.89;17.26;101838.06;5038310;28;45685;-73
2023/10/09 11:18:19;;;;;;;;;11.80;8.00;;;;;40.28;17.22;101852.19;5036473;28;45334;-70
2023/10/09 11:23:38;;;;;;;;;10.00;8.40;;;;;41.05;16.08;101836.44;5036620;28;45453;-72
2023/10/09 11:29:16;;;;;;;;;8.60;8.40;;;;;41.58;15.95;101839.72;5037840;28;45489;-70
2023/10/09 11:32:00;;;;;;;;;8.00;8.00;;;;;42.44;15.76;101823.44;5037119;28;45456;-71
2023/10/09 11:34:31;;;;;;;;;12.80;11.00;;;;;43.70;14.92;101844.16;5036716;28;45469;-72
2023/10/09 11:36:58;;;;;;;;;19.60;14.20;;;;;43.92;14.47;101834.91;5037341;28;45974;-73
2023/10/09 11:39:32;;;;;;;;;9.80;9.80;;;;;44.14;15.02;101846.94;5037386;28;45513;-72
2023/10/09 11:42:04;;;;;;;;;21.00;18.80;;;;;44.48;14.82;101836.34;5039944;28;45528;-72
2023/10/09 11:44:45;;;;;;;;;10.80;9.40;;;;;43.90;14.67;101837.03;5033963;28;45393;-72
2023/10/09 11:52:35;;;;;;;;;13.40;12.60;;;;;42.81;14.95;101839.25;5027117;28;45883;-72
2023/10/09 11:55:02;;;;;;;;;23.60;22.40;;;;;42.28;15.98;101832.59;5034194;28;45362;-72
2023/10/09 11:57:33;;;;;;;;;43.75;34.75;;;;;41.44;16.47;101799.16;5034331;28;45486;-72
2023/10/09 12:00:10;;;;;;;;;39.00;32.40;;;;;41.12;16.61;101811.88;5036017;28;45759;-72
2023/10/09 12:02:43;;;;;;;;;16.60;15.80;;;;;40.56;16.63;101817.09;5036019;28;45359;-72
2023/10/09 12:05:16;;;;;;;;;13.00;12.20;;;;;40.01;17.56;101806.59;5051556;28;45588;-71
2023/10/09 12:07:54;;;;;;;;;41.50;33.00;;;;;39.57;18.01;101782.84;5034205;28;46267;-70
2023/10/09 12:10:25;;;;;;;;;52.00;41.00;;;;;38.91;19.44;101772.38;5030011;28;45335;-71
2023/10/09 12:12:57;;;;;;;;;51.00;41.00;;;;;38.56;19.71;101812.41;5033247;28;46577;-71
2023/10/09 12:15:24;;;;;;;;;51.50;38.75;;;;;37.96;20.09;101808.22;5029413;28;45654;-72
2023/10/09 12:17:53;;;;;;;;;42.50;34.25;;;;;37.19;20.32;101727.34;5034125;28;45637;-72
2023/10/09 12:20:40;;;;;;;;;30.80;27.80;;;;;37.53;20.06;101800.63;5035309;28;45506;-72
2023/10/09 12:23:06;;;;;;;;;19.60;18.00;;;;;37.28;19.10;101800.22;5028475;28;46451;-72
2023/10/09 12:25:35;;;;;;;;;14.80;12.20;;;;;36.93;18.79;101788.00;5034969;28;45516;-71
2023/10/09 12:28:02;;;;;;;;;17.60;13.80;;;;;36.39;19.30;101767.53;5033667;28;46430;-69
2023/10/09 12:30:39;;;;;;;;;12.80;11.60;;;;;35.87;20.59;101758.59;5033090;28;45534;-68
2023/10/09 12:33:07;;;;;;;;;15.60;14.40;;;;;35.82;21.13;101788.97;5033979;28;45529;-71
2023/10/09 12:35:37;;;;;;;;;12.60;11.60;;;;;35.65;20.77;101785.03;5036862;28;45541;-71
2023/10/09 12:38:08;;;;;;;;;13.60;11.80;;;;;35.46;21.50;101784.91;5036601;28;47055;-68
2023/10/09 12:40:35;;;;;;;;;11.40;10.60;;;;;35.13;22.08;101759.59;5035799;28;45258;-75
2023/10/09 12:43:00;;;;;;;;;24.80;22.40;;;;;34.52;22.46;101713.91;5035612;28;45421;-69
2023/10/09 12:45:27;;;;;;;;;13.25;13.25;;;;;34.71;22.88;101785.84;5037065;28;45460;-70
2023/10/09 12:47:54;;;;;;;;;13.40;11.40;;;;;34.41;22.87;101765.66;5034804;28;47159;-71
2023/10/09 12:50:27;;;;;;;;;9.20;9.00;;;;;34.13;23.21;101761.63;5037970;28;45386;-70
2023/10/09 12:53:01;;;;;;;;;12.00;9.20;;;;;33.75;21.62;101703.94;5030552;28;45608;-71
2023/10/09 12:55:32;;;;;;;;;10.00;9.60;;;;;33.77;22.09;101728.28;5037442;28;45363;-71
2023/10/09 12:58:06;;;;;;;;;10.20;8.40;;;;;33.46;22.10;101754.25;5036755;28;45488;-75
2023/10/09 13:00:48;;;;;;;;;14.40;10.80;;;;;33.14;24.26;101722.38;5038128;28;45256;-70
2023/10/09 13:03:17;;;;;;;;;11.60;10.00;;;;;33.23;23.30;101750.66;5037847;28;45401;-78
2023/10/09 13:05:58;;;;;;;;;12.20;9.80;;;;;33.04;21.84;101765.66;5036035;28;45583;-79
2023/10/09 13:08:35;;;;;;;;;9.60;6.40;;;;;32.76;21.39;101741.59;5037003;28;45347;-68
2023/10/09 13:11:11;;;;;;;;;7.40;7.40;;;;;32.55;22.47;101750.34;5031386;28;45474;-68
2023/10/09 13:13:46;;;;;;;;;9.60;8.80;;;;;32.56;21.73;101757.53;5029928;28;45504;-69
2023/10/09 13:16:27;;;;;;;;;10.20;8.40;;;;;32.39;21.21;101757.88;5036371;28;45328;-69
2023/10/09 13:18:59;;;;;;;;;8.60;7.00;;;;;31.98;21.80;101721.13;5024203;28;46261;-69
2023/10/09 13:21:37;;;;;;;;;10.80;8.20;;;;;31.42;23.21;101689.91;5023271;28;46254;-69
2023/10/09 13:24:03;;;;;;;;;6.80;6.20;;;;;31.66;22.50;101749.53;5041212;28;45481;-69
2023/10/09 13:26:29;;;;;;;;;10.00;8.00;;;;;31.48;22.31;101734.59;5025623;28;45445;-67
2023/10/09 13:28:57;;;;;;;;;13.40;9.00;;;;;31.31;23.49;101729.50;5027324;28;45422;-68
2023/10/09 13:31:26;;;;;;;;;10.80;10.00;;;;;30.96;24.72;101711.16;5040733;28;45732;-69
2023/10/09 13:33:54;;;;;;;;;10.20;7.80;;;;;31.03;22.98;101748.47;5030647;28;45609;-69
2023/10/09 13:36:27;;;;;;;;;10.80;8.20;;;;;30.67;23.26;101708.56;5020791;28;45436;-70
2023/10/09 13:39:19;;;;;;;;;11.20;8.00;;;;;30.60;24.98;101718.06;5031046;28;45569;-68
2023/10/09 13:41:46;;;;;;;;;10.00;8.20;;;;;30.54;25.36;101750.88;5033453;28;45445;-70
2023/10/09 13:44:12;;;;;;;;;12.40;8.80;;;;;30.32;25.01;101733.38;5036137;28;46472;-68
2023/10/09 13:46:50;;;;;;;;;9.25;8.00;;;;;30.35;23.01;101740.44;5035494;28;46039;-67
2023/10/09 13:49:15;;;;;;;;;7.60;6.60;;;;;30.23;23.49;101739.34;5032135;28;46311;-68
2023/10/09 13:51:44;;;;;;;;;6.50;6.25;;;;;30.11;23.18;101732.06;5034223;28;45310;-68
2023/10/09 13:54:18;;;;;;;;;7.00;7.00;;;;;30.00;22.82;101730.94;5036618;28;46458;-68
2023/10/09 13:56:43;;;;;;;;;9.60;6.80;;;;;29.93;23.21;101729.59;5036425;28;45413;-68
2023/10/09 13:59:10;;;;;;;;;9.00;7.00;;;;;29.87;25.29;101738.06;5036775;28;46478;-67
2023/10/09 14:01:39;;;;;;;;;6.00;5.60;;;;;29.67;24.59;101736.66;5037090;28;45893;-68
2023/10/09 14:04:08;;;;;;;;;8.40;7.00;;;;;29.50;25.64;101724.19;5038108;28;45380;-67
2023/10/09 14:06:35;;;;;;;;;5.40;5.00;;;;;29.36;26.31;101729.56;5029690;28;46423;-69